sensor_id;sensor_type;location;lat;lon;timestamp;P1;durP1;ratioP1;P2;durP2;ratioP2
18505;SDS011;9382;53.242;10.438;2024-03-02T00:06:05;42.17;;;20.53;;
18505;SDS011;9382;53.242;10.438;2024-03-02T00:09:17;43.37;;;19.57;;
18505;SDS011;9382;53.242;10.438;2024-03-02T00:15:28;46.23;;;21.30;;
18505;SDS011;9382;53.242;10.438;2024-03-02T00:21:41;44.23;;;20.90;;
18505;SDS011;9382;53.242;10.438;2024-03-02T00:27:55;50.23;;;22.43;;
18505;SDS011;9382;53.242;10.438;2024-03-02T00:31:06;43.60;;;21.20;;
18505;SDS011;9382;53.242;10.438;2024-03-02T00:47:44;48.37;;;21.67;;
18505;SDS011;9382;53.242;10.438;2024-03-02T00:51:00;49.50;;;21.90;;
18505;SDS011;9382;53.242;10.438;2024-03-02T00:53:51;48.23;;;21.77;;
18505;SDS011;9382;53.242;10.438;2024-03-02T01:01:16;45.63;;;22.67;;
18505;SDS011;9382;53.242;10.438;2024-03-02T01:39:23;46.53;;;21.33;;
18505;SDS011;9382;53.242;10.438;2024-03-02T03:21:04;46.47;;;21.33;;
18505;SDS011;9382;53.242;10.438;2024-03-02T03:24:09;43.07;;;21.23;;
18505;SDS011;9382;53.242;10.438;2024-03-02T03:26:51;48.93;;;22.47;;
18505;SDS011;9382;53.242;10.438;2024-03-02T03:30:04;48.17;;;21.80;;
18505;SDS011;9382;53.242;10.438;2024-03-02T04:19:44;41.50;;;20.07;;
18505;SDS011;9382;53.242;10.438;2024-03-02T04:48:35;37.07;;;18.93;;
18505;SDS011;9382;53.242;10.438;2024-03-02T05:52:05;42.90;;;20.00;;
18505;SDS011;9382;53.242;10.438;2024-03-02T06:33:40;46.20;;;22.73;;
18505;SDS011;9382;53.242;10.438;2024-03-02T06:36:10;46.90;;;21.20;;
18505;SDS011;9382;53.242;10.438;2024-03-02T06:39:00;46.57;;;21.07;;
18505;SDS011;9382;53.242;10.438;2024-03-02T06:42:53;43.67;;;21.33;;
18505;SDS011;9382;53.242;10.438;2024-03-02T06:45:24;45.87;;;22.43;;
18505;SDS011;9382;53.242;10.438;2024-03-02T06:48:02;47.23;;;21.80;;
18505;SDS011;9382;53.242;10.438;2024-03-02T06:53:49;44.83;;;21.73;;
18505;SDS011;9382;53.242;10.438;2024-03-02T06:56:30;45.63;;;21.33;;
18505;SDS011;9382;53.242;10.438;2024-03-02T06:59:06;46.53;;;22.00;;
18505;SDS011;9382;53.242;10.438;2024-03-02T07:01:39;44.03;;;21.23;;
18505;SDS011;9382;53.242;10.438;2024-03-02T07:10:56;40.27;;;19.77;;
18505;SDS011;9382;53.242;10.438;2024-03-02T07:13:23;45.17;;;20.97;;
18505;SDS011;9382;53.242;10.438;2024-03-02T07:16:04;46.33;;;21.63;;
18505;SDS011;9382;53.242;10.438;2024-03-02T07:19:19;43.10;;;19.90;;
18505;SDS011;9382;53.242;10.438;2024-03-02T07:21:56;42.17;;;20.40;;
18505;SDS011;9382;53.242;10.438;2024-03-02T07:27:57;42.60;;;21.23;;
18505;SDS011;9382;53.242;10.438;2024-03-02T07:30:37;41.57;;;20.67;;
18505;SDS011;9382;53.242;10.438;2024-03-02T07:33:17;38.97;;;19.53;;
18505;SDS011;9382;53.242;10.438;2024-03-02T07:38:49;39.20;;;18.67;;
18505;SDS011;9382;53.242;10.438;2024-03-02T07:41:38;39.47;;;18.53;;
18505;SDS011;9382;53.242;10.438;2024-03-02T07:54:59;35.27;;;17.03;;
18505;SDS011;9382;53.242;10.438;2024-03-02T08:01:06;33.77;;;17.37;;
18505;SDS011;9382;53.242;10.438;2024-03-02T08:10:23;37.57;;;17.33;;
18505;SDS011;9382;53.242;10.438;2024-03-02T08:13:14;39.23;;;18.43;;
18505;SDS011;9382;53.242;10.438;2024-03-02T08:27:28;32.57;;;15.97;;
18505;SDS011;9382;53.242;10.438;2024-03-02T08:30:00;32.73;;;17.13;;
18505;SDS011;9382;53.242;10.438;2024-03-02T08:32:37;35.17;;;16.50;;
18505;SDS011;9382;53.242;10.438;2024-03-02T08:35:33;32.20;;;16.23;;
18505;SDS011;9382;53.242;10.438;2024-03-02T08:38:22;34.53;;;16.47;;
18505;SDS011;9382;53.242;10.438;2024-03-02T08:41:00;31.43;;;16.37;;
18505;SDS011;9382;53.242;10.438;2024-03-02T08:46:36;30.57;;;15.77;;
18505;SDS011;9382;53.242;10.438;2024-03-02T08:49:34;28.27;;;15.67;;
18505;SDS011;9382;53.242;10.438;2024-03-02T08:51:55;34.73;;;16.67;;
18505;SDS011;9382;53.242;10.438;2024-03-02T08:54:38;27.70;;;15.40;;
18505;SDS011;9382;53.242;10.438;2024-03-02T08:57:09;28.13;;;14.50;;
18505;SDS011;9382;53.242;10.438;2024-03-02T08:59:47;29.13;;;15.50;;
18505;SDS011;9382;53.242;10.438;2024-03-02T09:02:45;30.50;;;15.37;;
18505;SDS011;9382;53.242;10.438;2024-03-02T09:06:00;25.67;;;13.27;;
18505;SDS011;9382;53.242;10.438;2024-03-02T09:12:04;25.23;;;13.33;;
18505;SDS011;9382;53.242;10.438;2024-03-02T09:17:44;20.67;;;12.57;;
18505;SDS011;9382;53.242;10.438;2024-03-02T09:23:17;24.73;;;12.23;;
18505;SDS011;9382;53.242;10.438;2024-03-02T09:29:08;22.30;;;11.73;;
18505;SDS011;9382;53.242;10.438;2024-03-02T09:31:59;23.57;;;12.80;;
18505;SDS011;9382;53.242;10.438;2024-03-02T09:34:31;20.63;;;11.43;;
18505;SDS011;9382;53.242;10.438;2024-03-02T09:37:01;22.40;;;11.60;;
18505;SDS011;9382;53.242;10.438;2024-03-02T09:39:29;20.20;;;11.40;;
18505;SDS011;9382;53.242;10.438;2024-03-02T09:42:21;18.63;;;10.73;;
18505;SDS011;9382;53.242;10.438;2024-03-02T09:44:57;19.20;;;10.90;;
18505;SDS011;9382;53.242;10.438;2024-03-02T09:47:39;20.83;;;11.10;;
18505;SDS011;9382;53.242;10.438;2024-03-02T09:50:13;19.17;;;10.70;;
18505;SDS011;9382;53.242;10.438;2024-03-02T09:53:19;20.07;;;10.90;;
18505;SDS011;9382;53.242;10.438;2024-03-02T09:58:42;17.77;;;10.87;;
18505;SDS011;9382;53.242;10.438;2024-03-02T10:15:02;20.57;;;10.57;;
18505;SDS011;9382;53.242;10.438;2024-03-02T10:27:43;20.63;;;10.67;;
18505;SDS011;9382;53.242;10.438;2024-03-02T10:38:10;18.37;;;10.10;;
18505;SDS011;9382;53.242;10.438;2024-03-02T10:41:16;21.23;;;11.20;;
18505;SDS011;9382;53.242;10.438;2024-03-02T10:44:06;18.20;;;10.07;;
18505;SDS011;9382;53.242;10.438;2024-03-02T10:50:25;18.07;;;9.47;;
18505;SDS011;9382;53.242;10.438;2024-03-02T10:53:22;17.33;;;9.80;;
18505;SDS011;9382;53.242;10.438;2024-03-02T11:00:02;18.00;;;10.20;;
18505;SDS011;9382;53.242;10.438;2024-03-02T11:03:06;17.93;;;9.70;;
18505;SDS011;9382;53.242;10.438;2024-03-02T11:06:13;18.27;;;9.63;;
18505;SDS011;9382;53.242;10.438;2024-03-02T11:08:49;17.37;;;9.47;;
18505;SDS011;9382;53.242;10.438;2024-03-02T11:14:32;18.87;;;9.70;;
18505;SDS011;9382;53.242;10.438;2024-03-02T11:17:08;17.43;;;9.57;;
18505;SDS011;9382;53.242;10.438;2024-03-02T11:25:55;21.43;;;10.80;;
18505;SDS011;9382;53.242;10.438;2024-03-02T11:28:58;18.07;;;10.13;;
18505;SDS011;9382;53.242;10.438;2024-03-02T11:34:59;16.87;;;9.50;;
18505;SDS011;9382;53.242;10.438;2024-03-02T11:37:41;18.77;;;10.30;;
18505;SDS011;9382;53.242;10.438;2024-03-02T11:40:13;18.13;;;10.17;;
18505;SDS011;9382;53.242;10.438;2024-03-02T11:45:48;19.23;;;9.90;;
18505;SDS011;9382;53.242;10.438;2024-03-02T11:49:14;17.97;;;10.00;;
18505;SDS011;9382;53.242;10.438;2024-03-02T11:52:27;18.90;;;10.00;;
18505;SDS011;9382;53.242;10.438;2024-03-02T11:55:33;16.57;;;9.07;;
18505;SDS011;9382;53.242;10.438;2024-03-02T11:58:36;17.77;;;9.43;;
18505;SDS011;9382;53.242;10.438;2024-03-02T12:01:31;17.13;;;8.50;;
18505;SDS011;9382;53.242;10.438;2024-03-02T12:08:01;14.43;;;8.60;;
18505;SDS011;9382;53.242;10.438;2024-03-02T12:11:00;15.50;;;8.60;;
18505;SDS011;9382;53.242;10.438;2024-03-02T12:13:31;17.47;;;8.50;;
18505;SDS011;9382;53.242;10.438;2024-03-02T12:16:25;16.17;;;8.17;;
18505;SDS011;9382;53.242;10.438;2024-03-02T12:19:25;15.33;;;8.70;;
18505;SDS011;9382;53.242;10.438;2024-03-02T12:22:14;17.90;;;9.00;;
18505;SDS011;9382;53.242;10.438;2024-03-02T12:24:44;17.03;;;8.90;;
18505;SDS011;9382;53.242;10.438;2024-03-02T12:27:17;16.63;;;9.00;;
18505;SDS011;9382;53.242;10.438;2024-03-02T12:29:46;15.73;;;9.80;;
18505;SDS011;9382;53.242;10.438;2024-03-02T12:35:04;18.67;;;9.33;;
18505;SDS011;9382;53.242;10.438;2024-03-02T12:41:29;16.10;;;9.47;;
18505;SDS011;9382;53.242;10.438;2024-03-02T12:46:26;17.70;;;9.30;;
18505;SDS011;9382;53.242;10.438;2024-03-02T12:47:45;14.20;;;8.83;;
18505;SDS011;9382;53.242;10.438;2024-03-02T12:50:22;17.40;;;9.80;;
18505;SDS011;9382;53.242;10.438;2024-03-02T12:52:55;19.10;;;9.33;;
18505;SDS011;9382;53.242;10.438;2024-03-02T12:55:31;16.43;;;9.40;;
18505;SDS011;9382;53.242;10.438;2024-03-02T12:58:08;16.43;;;9.00;;
18505;SDS011;9382;53.242;10.438;2024-03-02T13:01:08;16.67;;;8.87;;
18505;SDS011;9382;53.242;10.438;2024-03-02T13:03:36;18.33;;;9.07;;
18505;SDS011;9382;53.242;10.438;2024-03-02T13:06:39;16.13;;;9.07;;
18505;SDS011;9382;53.242;10.438;2024-03-02T13:09:25;15.40;;;9.13;;
18505;SDS011;9382;53.242;10.438;2024-03-02T13:11:55;17.87;;;9.90;;
18505;SDS011;9382;53.242;10.438;2024-03-02T13:14:33;19.10;;;9.30;;
18505;SDS011;9382;53.242;10.438;2024-03-02T13:17:26;16.70;;;9.20;;
18505;SDS011;9382;53.242;10.438;2024-03-02T13:20:04;17.13;;;8.47;;
18505;SDS011;9382;53.242;10.438;2024-03-02T13:23:06;18.53;;;9.63;;
18505;SDS011;9382;53.242;10.438;2024-03-02T13:26:18;17.03;;;9.43;;
18505;SDS011;9382;53.242;10.438;2024-03-02T13:32:47;15.47;;;9.10;;
18505;SDS011;9382;53.242;10.438;2024-03-02T13:35:31;17.10;;;9.13;;
18505;SDS011;9382;53.242;10.438;2024-03-02T13:38:07;17.47;;;8.97;;
18505;SDS011;9382;53.242;10.438;2024-03-02T13:40:57;14.23;;;8.73;;
18505;SDS011;9382;53.242;10.438;2024-03-02T13:43:43;15.87;;;9.17;;
18505;SDS011;9382;53.242;10.438;2024-03-02T13:46:36;14.47;;;8.50;;
18505;SDS011;9382;53.242;10.438;2024-03-02T13:49:28;14.50;;;8.07;;
18505;SDS011;9382;53.242;10.438;2024-03-02T13:52:13;14.47;;;8.70;;
18505;SDS011;9382;53.242;10.438;2024-03-02T13:57:55;15.40;;;8.20;;
18505;SDS011;9382;53.242;10.438;2024-03-02T14:00:34;13.90;;;8.17;;
18505;SDS011;9382;53.242;10.438;2024-03-02T14:03:23;13.73;;;7.97;;
18505;SDS011;9382;53.242;10.438;2024-03-02T14:06:08;14.77;;;8.50;;
18505;SDS011;9382;53.242;10.438;2024-03-02T14:21:38;14.33;;;7.87;;
18505;SDS011;9382;53.242;10.438;2024-03-02T14:22:15;14.27;;;8.17;;
18505;SDS011;9382;53.242;10.438;2024-03-02T14:24:23;13.87;;;7.83;;
18505;SDS011;9382;53.242;10.438;2024-03-02T14:27:25;11.00;;;7.33;;
18505;SDS011;9382;53.242;10.438;2024-03-02T14:30:23;11.30;;;7.27;;
18505;SDS011;9382;53.242;10.438;2024-03-02T14:32:50;11.83;;;7.80;;
18505;SDS011;9382;53.242;10.438;2024-03-02T14:35:36;13.13;;;7.57;;
18505;SDS011;9382;53.242;10.438;2024-03-02T14:41:47;12.33;;;7.27;;
18505;SDS011;9382;53.242;10.438;2024-03-02T14:44:36;10.10;;;6.53;;
18505;SDS011;9382;53.242;10.438;2024-03-02T14:47:21;11.20;;;6.60;;
18505;SDS011;9382;53.242;10.438;2024-03-02T14:53:37;10.20;;;6.50;;
18505;SDS011;9382;53.242;10.438;2024-03-02T14:56:38;10.83;;;6.37;;
18505;SDS011;9382;53.242;10.438;2024-03-02T14:59:44;10.37;;;6.30;;
18505;SDS011;9382;53.242;10.438;2024-03-02T15:02:50;10.90;;;5.70;;
18505;SDS011;9382;53.242;10.438;2024-03-02T15:05:36;12.03;;;6.07;;
18505;SDS011;9382;53.242;10.438;2024-03-02T15:08:39;12.07;;;6.53;;
18505;SDS011;9382;53.242;10.438;2024-03-02T15:11:36;11.87;;;6.60;;
18505;SDS011;9382;53.242;10.438;2024-03-02T15:15:09;11.03;;;6.10;;
18505;SDS011;9382;53.242;10.438;2024-03-02T15:18:00;11.50;;;6.43;;
18505;SDS011;9382;53.242;10.438;2024-03-02T15:21:02;8.73;;;5.93;;
18505;SDS011;9382;53.242;10.438;2024-03-02T15:25:19;9.57;;;6.17;;
18505;SDS011;9382;53.242;10.438;2024-03-02T15:27:34;10.33;;;6.37;;
18505;SDS011;9382;53.242;10.438;2024-03-02T15:31:59;11.00;;;6.40;;
18505;SDS011;9382;53.242;10.438;2024-03-02T15:37:20;13.93;;;7.27;;
18505;SDS011;9382;53.242;10.438;2024-03-02T15:40:34;11.27;;;6.73;;
18505;SDS011;9382;53.242;10.438;2024-03-02T15:43:41;13.20;;;7.23;;
18505;SDS011;9382;53.242;10.438;2024-03-02T15:49:34;13.90;;;7.63;;
18505;SDS011;9382;53.242;10.438;2024-03-02T15:52:08;10.17;;;6.37;;
18505;SDS011;9382;53.242;10.438;2024-03-02T15:54:44;11.10;;;6.70;;
18505;SDS011;9382;53.242;10.438;2024-03-02T15:57:54;10.87;;;6.00;;
18505;SDS011;9382;53.242;10.438;2024-03-02T16:00:34;10.00;;;6.13;;
18505;SDS011;9382;53.242;10.438;2024-03-02T16:09:12;9.80;;;5.80;;
18505;SDS011;9382;53.242;10.438;2024-03-02T16:12:04;9.83;;;6.00;;
18505;SDS011;9382;53.242;10.438;2024-03-02T16:15:03;8.50;;;5.60;;
18505;SDS011;9382;53.242;10.438;2024-03-02T16:17:36;10.73;;;6.47;;
18505;SDS011;9382;53.242;10.438;2024-03-02T16:23:40;11.17;;;6.17;;
18505;SDS011;9382;53.242;10.438;2024-03-02T16:26:58;8.80;;;5.60;;
18505;SDS011;9382;53.242;10.438;2024-03-02T16:29:42;10.03;;;5.57;;
18505;SDS011;9382;53.242;10.438;2024-03-02T16:33:01;8.67;;;5.70;;
18505;SDS011;9382;53.242;10.438;2024-03-02T16:49:38;8.77;;;6.10;;
18505;SDS011;9382;53.242;10.438;2024-03-02T16:52:20;10.97;;;6.00;;
18505;SDS011;9382;53.242;10.438;2024-03-02T16:55:33;12.00;;;6.50;;
18505;SDS011;9382;53.242;10.438;2024-03-02T16:58:03;15.17;;;7.10;;
18505;SDS011;9382;53.242;10.438;2024-03-02T17:00:39;13.07;;;7.43;;
18505;SDS011;9382;53.242;10.438;2024-03-02T17:03:19;12.17;;;6.60;;
18505;SDS011;9382;53.242;10.438;2024-03-02T17:08:48;13.13;;;6.90;;
18505;SDS011;9382;53.242;10.438;2024-03-02T17:11:38;11.80;;;6.90;;
18505;SDS011;9382;53.242;10.438;2024-03-02T17:14:12;14.10;;;7.77;;
18505;SDS011;9382;53.242;10.438;2024-03-02T17:16:59;13.80;;;7.07;;
18505;SDS011;9382;53.242;10.438;2024-03-02T17:26:16;12.17;;;7.13;;
18505;SDS011;9382;53.242;10.438;2024-03-02T17:32:06;12.47;;;7.77;;
18505;SDS011;9382;53.242;10.438;2024-03-02T17:34:52;12.87;;;7.10;;
18505;SDS011;9382;53.242;10.438;2024-03-02T17:37:44;15.17;;;8.37;;
18505;SDS011;9382;53.242;10.438;2024-03-02T17:43:19;15.57;;;8.30;;
18505;SDS011;9382;53.242;10.438;2024-03-02T17:45:54;14.53;;;7.47;;
18505;SDS011;9382;53.242;10.438;2024-03-02T17:51:46;15.93;;;8.60;;
18505;SDS011;9382;53.242;10.438;2024-03-02T17:54:14;14.37;;;8.47;;
18505;SDS011;9382;53.242;10.438;2024-03-02T17:56:52;15.03;;;8.43;;
18505;SDS011;9382;53.242;10.438;2024-03-02T17:59:29;16.73;;;9.00;;
18505;SDS011;9382;53.242;10.438;2024-03-02T18:02:05;14.67;;;8.43;;
18505;SDS011;9382;53.242;10.438;2024-03-02T18:07:04;17.03;;;8.83;;
18505;SDS011;9382;53.242;10.438;2024-03-02T18:08:30;16.57;;;9.70;;
18505;SDS011;9382;53.242;10.438;2024-03-02T18:11:28;17.60;;;9.47;;
18505;SDS011;9382;53.242;10.438;2024-03-02T18:17:12;17.37;;;9.70;;
18505;SDS011;9382;53.242;10.438;2024-03-02T18:19:49;18.13;;;9.53;;
18505;SDS011;9382;53.242;10.438;2024-03-02T18:22:36;18.17;;;10.00;;
18505;SDS011;9382;53.242;10.438;2024-03-02T18:25:19;18.07;;;10.53;;
18505;SDS011;9382;53.242;10.438;2024-03-02T18:27:48;17.47;;;9.93;;
18505;SDS011;9382;53.242;10.438;2024-03-02T18:30:44;19.87;;;10.40;;
18505;SDS011;9382;53.242;10.438;2024-03-02T18:37:13;21.50;;;12.40;;
18505;SDS011;9382;53.242;10.438;2024-03-02T18:40:21;20.93;;;11.67;;
18505;SDS011;9382;53.242;10.438;2024-03-02T20:03:00;24.40;;;13.50;;
